RAIN

Not for real navigation. The accuracy of this data is not assured See disclaimer for more information



ICAO NAME COUNTRY WIND Kt GUST Kt VIS m TEMP/DEW C BARO METAR
KTOL TOLEDO EXPRESS AIRPORT OH United States 3 0 400 18/16 29.80 KTOL 161152Z 11003KT 0.25SM RA FG VV002 18/16 A2980 RMK AO2 RAB30 SLP089 P0002 60002 70038 T01780161
KUSE 6 0 400 16/16 29.81 KUSE 161155Z AUTO 06006KT 0.25SM -RA OVC002 16/16 A2981 RMK AO2
KELZ WELLSVILLE MUNICIPAL AIRPORT NY United States 3 0 400 16/16 29.86 KELZ 161156Z AUTO 10003KT 0.25SM -RA FG OVC007 16/16 A2986 RMK AO2 SLP106 P0005 60034 70057 T0156015
KGDJ Granbury, Granbury Municipal A TX United States 0 0 800 21/19 29.90 KGDJ 161150Z AUTO 00000KT 0.5SM -RA OVC008 21/19 A2990 RMK AO2 LTG NOOP NE AND E T02080189 10287 202
KUGN CHICAGO/WAUKEGAN REGIONAL IL United States 6 0 800 13/13 29.80 KUGN 161155Z 01006KT 0.5SM -RA FG OVC002 13/13 A2980 RMK AO2 RAB05 SLP090 P0004 60015 70015 T0133012

Show more